Time;durP1;ratioP1;P1;durP2;ratioP2;P2;SDS_P1;SDS_P2;PMS_P1;PMS_P2;Temp;Humidity;BMP_temperature;BMP_pressure;BME280_temperature;BME280_humidity;BME280_pressure;Samples;Min_cycle;Max_cycle;Signal;HPM_P1;HPM_P2
2024/02/16 00:00:13;;;;;;;6.10;4.28;;;;;;;13.55;45.75;94814.56;6162184;23;20327;-88
2024/02/16 00:02:39;;;;;;;6.60;4.40;;;;;;;13.48;46.01;94822.44;6186717;23;20004;-87
2024/02/16 00:07:39;;;;;;;5.43;3.83;;;;;;;13.32;46.77;94799.38;6211957;23;20035;-88
2024/02/16 00:10:06;;;;;;;3.70;3.08;;;;;;;13.15;46.41;94790.34;6162045;23;20005;-87
2024/02/16 00:14:59;;;;;;;3.92;3.05;;;;;;;13.36;46.15;94805.00;6213400;23;20059;-86
2024/02/16 00:19:51;;;;;;;5.35;3.03;;;;;;;13.47;45.24;94804.34;6228677;22;20004;-87
2024/02/16 00:27:17;;;;;;;5.55;3.00;;;;;;;13.57;45.03;94817.78;6193436;22;20032;-87
2024/02/16 00:29:46;;;;;;;5.10;3.47;;;;;;;13.58;46.07;94822.00;6162555;23;20017;-87
2024/02/16 00:37:12;;;;;;;4.47;3.30;;;;;;;13.48;46.57;94832.09;6213801;23;20024;-87
2024/02/16 00:39:40;;;;;;;3.53;2.80;;;;;;;13.55;46.03;94835.47;6162485;23;20019;-87
2024/02/16 00:42:09;;;;;;;5.13;3.60;;;;;;;13.71;44.69;94820.34;6188697;23;20001;-87
2024/02/16 00:44:34;;;;;;;4.75;3.45;;;;;;;13.47;45.27;94833.09;6188185;23;20019;-87
2024/02/16 00:52:10;;;;;;;4.45;2.70;;;;;;;13.04;45.92;94830.91;6183684;23;20025;-87
2024/02/16 00:54:36;;;;;;;4.30;2.70;;;;;;;13.29;45.00;94846.78;6182805;23;20015;-87
2024/02/16 01:04:47;;;;;;;3.67;2.70;;;;;;;13.42;44.98;94848.56;6183909;23;20021;-87
2024/02/16 01:09:38;;;;;;;2.67;2.10;;;;;;;13.41;43.69;94839.94;6186430;23;20029;-87
2024/02/16 01:14:29;;;;;;;2.65;1.85;;;;;;;13.53;43.58;94834.09;6208320;23;20020;-87
2024/02/16 01:19:21;;;;;;;2.47;1.80;;;;;;;13.69;42.08;94825.81;6207636;23;20051;-87
2024/02/16 01:21:52;;;;;;;3.00;2.00;;;;;;;13.56;42.31;94828.47;6193603;23;20260;-86
2024/02/16 01:24:17;;;;;;;2.58;1.88;;;;;;;13.57;42.21;94830.84;6189070;23;20000;-87
2024/02/16 01:26:42;;;;;;;2.50;1.83;;;;;;;13.55;41.97;94819.00;6213174;23;20012;-86
2024/02/16 01:29:08;;;;;;;2.13;1.67;;;;;;;13.71;41.44;94825.56;6187387;23;20025;-87
2024/02/16 01:34:09;;;;;;;2.38;1.65;;;;;;;13.84;41.37;94822.91;6205600;23;20023;-86
2024/02/16 01:36:34;;;;;;;3.38;2.28;;;;;;;13.72;41.72;94832.44;6212455;23;20020;-87
2024/02/16 01:38:59;;;;;;;2.92;1.77;;;;;;;13.77;41.54;94833.41;6187620;23;20044;-87
2024/02/16 01:41:25;;;;;;;3.97;2.00;;;;;;;13.71;41.69;94828.19;6212277;23;20075;-88
2024/02/16 01:43:54;;;;;;;3.97;2.00;;;;;;;13.95;41.67;94827.50;6187470;23;20012;-87
2024/02/16 01:46:20;;;;;;;3.85;2.22;;;;;;;13.77;42.63;94838.63;6212419;23;20005;-86
2024/02/16 01:48:46;;;;;;;2.97;2.10;;;;;;;13.74;43.05;94841.66;6186923;23;20004;-87
2024/02/16 01:53:47;;;;;;;3.45;1.80;;;;;;;13.43;43.96;94844.97;6210096;23;20024;-87
2024/02/16 02:04:00;;;;;;;3.33;1.70;;;;;;;13.07;44.46;94840.97;6190178;23;20021;-86
2024/02/16 02:06:26;;;;;;;3.03;1.55;;;;;;;12.93;44.46;94847.19;6212523;23;20005;-87
2024/02/16 02:08:52;;;;;;;3.85;2.47;;;;;;;12.75;45.68;94855.63;6216373;23;20028;-86
2024/02/16 02:11:18;;;;;;;3.45;2.35;;;;;;;12.51;46.60;94865.63;6216292;23;20099;-86
2024/02/16 02:13:44;;;;;;;3.40;2.42;;;;;;;12.48;46.65;94864.19;6218010;23;20032;-87
2024/02/16 02:16:10;;;;;;;3.78;2.63;;;;;;;12.60;46.43;94853.97;6192651;23;20042;-88
2024/02/16 02:18:36;;;;;;;6.32;3.17;;;;;;;12.58;46.16;94852.59;6191775;23;20116;-87
2024/02/16 02:23:28;;;;;;;3.42;2.70;;;;;;;12.69;45.85;94852.78;6209932;23;20048;-86
2024/02/16 02:25:53;;;;;;;6.43;3.00;;;;;;;12.56;46.17;94863.22;6162917;23;20050;-87
2024/02/16 02:28:23;;;;;;;3.33;2.42;;;;;;;12.46;46.36;94855.78;6162510;23;20087;-88
2024/02/16 02:30:49;;;;;;;3.28;2.60;;;;;;;12.42;46.39;94849.34;6163473;23;20042;-86
2024/02/16 02:35:50;;;;;;;4.60;2.83;;;;;;;12.33;45.97;94853.13;6236730;22;20011;-87
2024/02/16 02:38:15;;;;;;;3.70;2.90;;;;;;;12.47;45.69;94848.75;6216495;23;20012;-87
2024/02/16 02:43:06;;;;;;;3.47;2.65;;;;;;;12.72;44.58;94856.81;6239209;22;20028;-88
2024/02/16 02:45:31;;;;;;;3.97;2.53;;;;;;;13.11;43.62;94863.03;6217364;23;20011;-87
2024/02/16 02:47:56;;;;;;;3.88;2.40;;;;;;;13.15;44.03;94858.22;6216897;23;20000;-88
2024/02/16 02:57:58;;;;;;;2.40;1.60;;;;;;;13.17;42.11;94854.41;6240174;22;20027;-86
2024/02/16 03:00:25;;;;;;;5.45;1.90;;;;;;;13.35;41.79;94853.03;6191755;23;20008;-87
2024/02/16 03:02:51;;;;;;;2.35;1.70;;;;;;;13.20;42.65;94858.44;6217439;23;20019;-88
2024/02/16 03:05:18;;;;;;;2.30;1.70;;;;;;;13.56;41.57;94870.28;6191636;23;20044;-87
2024/02/16 03:15:19;;;;;;;2.60;1.90;;;;;;;13.54;41.69;94867.84;6241421;22;20027;-87
2024/02/16 03:17:44;;;;;;;3.88;1.83;;;;;;;13.69;41.56;94880.69;6217104;23;20016;-87
2024/02/16 03:20:10;;;;;;;3.03;1.60;;;;;;;13.80;40.48;94876.63;6216135;23;20020;-87
2024/02/16 03:22:35;;;;;;;2.75;1.90;;;;;;;13.58;40.56;94863.03;6191639;23;20008;-87
2024/02/16 03:25:05;;;;;;;4.05;1.70;;;;;;;13.80;40.93;94882.69;6216705;23;20019;-87
2024/02/16 03:27:30;;;;;;;2.90;1.70;;;;;;;13.87;40.36;94882.63;6192353;23;20079;-87
2024/02/16 03:29:56;;;;;;;2.67;1.80;;;;;;;14.06;40.32;94883.59;6217161;23;20027;-87
2024/02/16 03:34:46;;;;;;;3.05;1.45;;;;;;;14.01;40.79;94876.38;6240329;22;20015;-87
2024/02/16 03:45:02;;;;;;;3.25;1.70;;;;;;;14.08;41.67;94895.44;6161893;23;20053;-87
2024/02/16 03:47:28;;;;;;;4.57;2.15;;;;;;;14.19;41.98;94899.22;6158331;23;20020;-87
2024/02/16 03:52:19;;;;;;;3.22;1.98;;;;;;;14.19;42.22;94883.53;6206088;23;20055;-88
2024/02/16 03:54:48;;;;;;;2.50;1.90;;;;;;;14.11;42.58;94888.19;6188025;23;20008;-87
2024/02/16 03:57:13;;;;;;;3.30;2.00;;;;;;;14.15;42.61;94895.41;6188711;23;20016;-88
2024/02/16 03:59:39;;;;;;;4.47;2.15;;;;;;;14.30;42.56;94886.50;6163546;23;20004;-88
2024/02/16 04:04:30;;;;;;;4.72;1.80;;;;;;;14.54;42.31;94892.81;6213764;23;20029;-87
2024/02/16 04:06:55;;;;;;;3.92;2.00;;;;;;;14.53;42.71;94899.88;6163913;23;20012;-87
2024/02/16 04:09:21;;;;;;;4.85;2.20;;;;;;;14.47;43.00;94888.44;6187307;23;20017;-87
2024/02/16 04:11:46;;;;;;;3.28;1.98;;;;;;;14.58;42.97;94888.78;6163768;23;20008;-87
2024/02/16 04:14:14;;;;;;;2.47;2.00;;;;;;;14.55;42.96;94886.59;6213030;23;20083;-87
2024/02/16 04:16:43;;;;;;;4.15;1.92;;;;;;;14.66;43.02;94896.41;6163527;23;20005;-88
2024/02/16 04:26:47;;;;;;;2.92;1.88;;;;;;;14.69;43.23;94893.34;6181228;23;20028;-87
2024/02/16 04:29:13;;;;;;;3.05;1.90;;;;;;;14.68;43.14;94901.41;6158647;23;20467;-87
2024/02/16 04:31:42;;;;;;;3.40;1.90;;;;;;;14.54;43.25;94884.97;6134366;23;20017;-87
2024/02/16 04:34:10;;;;;;;3.55;2.03;;;;;;;14.81;42.72;94898.72;6158576;23;20017;-87
2024/02/16 04:36:36;;;;;;;3.20;1.80;;;;;;;14.90;42.46;94904.50;6133796;23;20039;-87
2024/02/16 04:39:02;;;;;;;4.55;2.63;;;;;;;14.66;42.71;94891.19;6183128;23;20015;-86
2024/02/16 04:41:27;;;;;;;3.20;1.73;;;;;;;14.73;42.74;94897.16;6210816;23;20008;-87
2024/02/16 04:43:54;;;;;;;2.08;1.58;;;;;;;14.83;41.88;94901.94;6188119;23;20024;-86
2024/02/16 04:46:22;;;;;;;3.60;1.90;;;;;;;14.71;41.82;94901.00;6163431;23;20001;-87
2024/02/16 04:48:48;;;;;;;3.40;1.55;;;;;;;14.69;41.82;94893.34;6188583;23;20004;-87
2024/02/16 04:53:48;;;;;;;2.95;1.80;;;;;;;14.77;41.72;94900.94;6201879;23;20016;-85
2024/02/16 04:56:15;;;;;;;3.15;1.85;;;;;;;14.72;41.65;94906.03;6188121;23;20013;-87
2024/02/16 04:58:42;;;;;;;3.47;1.70;;;;;;;14.76;41.63;94886.28;6194774;23;20000;-87
2024/02/16 05:01:07;;;;;;;3.13;1.95;;;;;;;14.68;42.32;94909.28;6216408;23;20027;-86
2024/02/16 05:08:33;;;;;;;3.30;1.50;;;;;;;14.24;43.07;94893.34;6213271;23;20020;-87
2024/02/16 05:11:04;;;;;;;2.75;1.45;;;;;;;14.28;42.53;94891.94;6187728;23;20070;-86
2024/02/16 05:13:29;;;;;;;2.13;1.60;;;;;;;13.99;43.90;94896.69;6162826;23;20139;-87
2024/02/16 05:15:54;;;;;;;2.10;1.40;;;;;;;14.02;43.53;94895.47;6162973;23;20088;-87
2024/02/16 05:18:24;;;;;;;2.42;1.65;;;;;;;14.07;43.27;94893.84;6162809;23;20019;-86
2024/02/16 05:25:50;;;;;;;3.85;2.47;;;;;;;13.70;44.68;94895.34;6213422;23;20027;-86
2024/02/16 05:28:16;;;;;;;3.55;2.30;;;;;;;13.65;44.42;94885.53;6163348;23;20004;-86
2024/02/16 05:33:11;;;;;;;4.03;2.88;;;;;;;13.74;43.33;94888.69;6212274;23;20019;-87
2024/02/16 05:35:39;;;;;;;5.13;2.60;;;;;;;13.76;43.32;94896.34;6178511;23;20031;-87
2024/02/16 05:40:53;;;;;;;4.68;2.60;;;;;;;13.71;42.85;94890.91;6228076;23;20000;-88
2024/02/16 05:43:23;;;;;;;2.67;2.17;;;;;;;13.68;43.17;94894.75;6184633;23;20012;-86
2024/02/16 05:45:50;;;;;;;3.30;2.30;;;;;;;13.83;43.39;94891.91;6207384;23;20071;-87
2024/02/16 05:48:15;;;;;;;3.03;2.25;;;;;;;13.77;43.55;94897.97;6206943;23;20027;-87
2024/02/16 06:00:53;;;;;;;3.65;2.30;;;;;;;13.34;44.67;94895.81;6212680;23;20028;-87
2024/02/16 06:03:18;;;;;;;3.13;1.80;;;;;;;13.41;44.09;94909.69;6187716;23;20044;-87
2024/02/16 06:05:44;;;;;;;3.85;1.80;;;;;;;13.41;44.37;94915.69;6138394;23;20012;-87
2024/02/16 06:08:17;;;;;;;3.67;2.00;;;;;;;13.37;44.17;94909.28;6188052;23;20031;-88
2024/02/16 06:10:43;;;;;;;3.67;2.35;;;;;;;13.40;44.35;94921.94;6213926;23;20079;-87
2024/02/16 06:13:11;;;;;;;2.97;1.90;;;;;;;13.43;44.42;94915.50;6183831;23;20092;-87
2024/02/16 06:20:47;;;;;;;2.67;1.73;;;;;;;13.28;43.42;94921.69;6154971;23;20029;-87
2024/02/16 06:23:17;;;;;;;4.15;1.80;;;;;;;13.35;43.54;94913.91;6150173;23;20043;-87
2024/02/16 06:25:43;;;;;;;3.80;2.08;;;;;;;13.14;43.69;94909.66;6135271;23;20084;-87
2024/02/16 06:28:08;;;;;;;2.38;1.50;;;;;;;13.36;43.22;94927.75;6158645;23;20037;-87
2024/02/16 06:30:33;;;;;;;2.70;1.70;;;;;;;13.29;43.48;94931.16;6134360;23;20067;-87
2024/02/16 06:38:09;;;;;;;2.40;1.65;;;;;;;13.48;42.58;94934.00;6242760;23;20020;-87
2024/02/16 06:40:36;;;;;;;2.03;1.35;;;;;;;13.39;42.85;94916.91;6192353;23;20016;-88
2024/02/16 06:43:05;;;;;;;2.53;1.55;;;;;;;13.47;42.44;94925.31;6168055;23;20008;-87
2024/02/16 06:45:30;;;;;;;2.63;1.60;;;;;;;13.37;43.27;94932.78;6193117;23;20012;-87
2024/02/16 07:08:37;;;;;;;2.60;2.00;;;;;;;14.05;42.84;94963.84;6178757;23;20075;-86
2024/02/16 07:11:04;;;;;;;3.20;2.10;;;;;;;14.03;42.89;94954.59;6157493;23;20013;-86
2024/02/16 07:18:30;;;;;;;2.20;1.85;;;;;;;14.45;41.86;94965.53;6237521;23;20046;-86
2024/02/16 07:20:56;;;;;;;2.30;1.50;;;;;;;14.62;41.36;94952.78;6244435;23;20011;-87
2024/02/16 07:23:22;;;;;;;2.78;2.10;;;;;;;14.86;42.29;94980.84;6168675;23;20008;-86
2024/02/16 07:25:48;;;;;;;1.83;1.70;;;;;;;15.05;42.86;94968.66;6218815;23;20011;-86
2024/02/16 07:28:14;;;;;;;4.65;2.00;;;;;;;15.07;43.16;94981.56;6219107;23;20015;-86
2024/02/16 07:38:27;;;;;;;2.78;2.05;;;;;;;16.86;37.97;94972.22;6214753;23;20024;-86
2024/02/16 08:12:08;;;;;;;3.22;1.67;;;;;;;24.07;26.25;95002.13;6242827;22;20028;-87
2024/02/16 08:14:34;;;;;;;1.70;1.33;;;;;;;23.50;26.11;95003.16;6217701;23;20015;-88
2024/02/16 08:16:59;;;;;;;2.58;1.40;;;;;;;23.14;26.52;94997.78;6192504;23;20015;-86
2024/02/16 08:19:32;;;;;;;2.60;1.27;;;;;;;23.34;25.99;94995.19;6192013;23;20044;-87
2024/02/16 08:27:02;;;;;;;5.72;2.05;;;;;;;21.37;29.19;95013.88;6242938;22;20028;-87
2024/02/16 08:29:27;;;;;;;2.33;1.50;;;;;;;21.23;28.38;95006.34;6217402;23;20016;-87
2024/02/16 08:34:28;;;;;;;2.85;1.48;;;;;;;20.53;29.61;95007.09;6229229;22;20031;-87
2024/02/16 08:36:55;;;;;;;3.42;1.50;;;;;;;20.50;30.41;95018.94;6218051;23;20008;-85
2024/02/16 08:41:48;;;;;;;1.48;1.38;;;;;;;20.33;30.78;95016.34;6228855;22;20048;-86
2024/02/16 08:44:16;;;;;;;2.05;1.40;;;;;;;20.38;31.83;95026.97;6217800;23;20062;-86
2024/02/16 08:46:42;;;;;;;2.97;1.17;;;;;;;19.89;29.83;95005.69;6219243;23;20012;-86
2024/02/16 08:49:09;;;;;;;1.65;1.20;;;;;;;20.45;33.54;95024.97;6217655;23;20022;-86
2024/02/16 08:54:01;;;;;;;2.58;1.48;;;;;;;20.21;33.96;95019.09;6214646;23;20022;-87
2024/02/16 08:56:35;;;;;;;1.42;1.20;;;;;;;20.27;33.00;95014.69;6217438;23;20011;-87
2024/02/16 08:59:01;;;;;;;2.58;1.50;;;;;;;20.80;32.64;95020.41;6192678;23;20087;-87
2024/02/16 09:01:39;;;;;;;4.22;1.25;;;;;;;20.85;31.06;95028.41;6192251;23;20016;-87
2024/02/16 09:09:09;;;;;;;4.22;1.45;;;;;;;20.78;32.95;95030.44;6235399;22;20023;-87
2024/02/16 09:11:34;;;;;;;2.58;1.20;;;;;;;20.49;33.00;95039.28;6193257;23;20023;-87
2024/02/16 09:14:03;;;;;;;5.13;1.50;;;;;;;20.58;32.51;95039.69;6191542;23;20004;-86
2024/02/16 09:16:28;;;;;;;3.10;1.23;;;;;;;20.59;32.88;95043.13;6218023;23;20008;-87
2024/02/16 09:21:29;;;;;;;3.17;1.60;;;;;;;20.73;33.38;95035.66;6227618;22;20017;-87
2024/02/16 09:23:58;;;;;;;2.25;1.50;;;;;;;20.51;33.16;95049.63;6192379;23;20061;-86
2024/02/16 09:26:26;;;;;;;3.05;1.48;;;;;;;20.46;33.20;95046.91;6217046;23;19996;-88
2024/02/16 09:28:53;;;;;;;2.65;1.67;;;;;;;20.60;33.21;95042.91;6217259;23;20069;-87
2024/02/16 09:31:18;;;;;;;2.10;1.70;;;;;;;20.56;34.82;95039.13;6217016;23;20004;-87
2024/02/16 09:33:45;;;;;;;3.78;1.92;;;;;;;20.56;35.21;95044.41;6192321;23;20036;-87
2024/02/16 09:36:11;;;;;;;3.38;1.73;;;;;;;21.15;34.12;95043.00;6191512;23;20103;-87
2024/02/16 09:43:46;;;;;;;2.10;1.48;;;;;;;21.36;32.29;95054.59;6241253;22;20020;-87
2024/02/16 09:46:15;;;;;;;1.73;1.58;;;;;;;20.53;33.91;95044.88;6216931;23;20016;-87
2024/02/16 09:48:43;;;;;;;2.97;1.65;;;;;;;20.60;34.15;95040.25;6191704;23;20016;-88
2024/02/16 09:51:09;;;;;;;2.10;1.70;;;;;;;20.46;34.93;95050.34;6192501;23;20008;-88
2024/02/16 09:53:34;;;;;;;2.38;1.60;;;;;;;20.65;33.89;95064.09;6217030;23;20065;-88
2024/02/16 09:56:01;;;;;;;2.55;1.90;;;;;;;20.64;35.37;95051.94;6191994;23;20064;-87
2024/02/16 09:58:27;;;;;;;4.57;2.30;;;;;;;20.73;36.32;95048.84;6217053;23;20019;-86
2024/02/16 10:06:04;;;;;;;4.93;1.85;;;;;;;20.98;35.31;95059.75;6230013;22;20023;-87
2024/02/16 10:08:29;;;;;;;4.13;1.70;;;;;;;21.48;32.67;95071.16;6216768;23;20012;-88
2024/02/16 10:11:04;;;;;;;3.92;1.40;;;;;;;21.48;31.90;95071.97;6216623;23;20059;-87
2024/02/16 10:13:31;;;;;;;3.80;2.00;;;;;;;21.70;32.68;95071.09;6191286;23;20015;-87
2024/02/16 10:16:08;;;;;;;3.70;1.50;;;;;;;21.63;30.45;95068.66;6191905;23;20011;-87
2024/02/16 10:18:37;;;;;;;3.22;1.30;;;;;;;21.62;32.16;95071.56;6216642;23;20008;-87
2024/02/16 10:21:05;;;;;;;4.07;1.60;;;;;;;21.76;34.09;95074.59;6216732;23;20063;-87
2024/02/16 10:23:31;;;;;;;2.30;1.80;;;;;;;21.96;32.17;95071.31;6217271;23;20012;-86
2024/02/16 10:25:59;;;;;;;4.90;1.63;;;;;;;22.17;32.25;95072.28;6216862;23;20009;-87
2024/02/16 10:31:05;;;;;;;2.10;1.50;;;;;;;22.05;30.96;95077.75;6189562;23;20094;-87
2024/02/16 10:33:31;;;;;;;2.65;1.50;;;;;;;21.88;30.60;95083.19;6192578;23;20082;-87
2024/02/16 10:36:02;;;;;;;2.28;1.60;;;;;;;22.05;31.38;95080.41;6191233;23;20016;-88
2024/02/16 10:38:30;;;;;;;3.63;1.95;;;;;;;22.34;32.42;95083.56;6216488;23;20019;-87
2024/02/16 10:43:22;;;;;;;4.90;2.90;;;;;;;22.57;34.82;95076.28;6238125;22;20028;-89
2024/02/16 10:45:52;;;;;;;4.03;2.80;;;;;;;22.75;33.45;95088.31;6216191;23;20012;-88
2024/02/16 10:48:18;;;;;;;4.55;2.38;;;;;;;22.72;32.81;95083.53;6191824;23;20012;-86
2024/02/16 10:50:50;;;;;;;3.92;2.47;;;;;;;22.78;32.76;95079.84;6215962;23;20107;-87
2024/02/16 10:53:24;;;;;;;5.20;2.72;;;;;;;22.56;33.26;95078.16;6216144;23;20000;-87
2024/02/16 10:55:49;;;;;;;3.58;2.70;;;;;;;22.61;34.07;95093.28;6241858;22;20043;-86
2024/02/16 10:58:17;;;;;;;5.20;2.70;;;;;;;22.74;33.20;95076.13;6166205;23;20005;-87
2024/02/16 11:00:50;;;;;;;5.05;2.67;;;;;;;23.14;33.23;95088.00;6216331;23;20004;-87
2024/02/16 11:03:18;;;;;;;4.07;2.67;;;;;;;23.00;33.41;95091.09;6191128;23;20026;-87
2024/02/16 11:08:14;;;;;;;6.67;2.30;;;;;;;22.96;33.46;95078.59;6212903;22;20012;-88
2024/02/16 11:10:39;;;;;;;3.88;2.28;;;;;;;23.06;34.29;95094.59;6216050;23;20241;-86
2024/02/16 11:13:08;;;;;;;2.63;2.40;;;;;;;23.17;32.11;95098.06;6216132;23;20050;-87
2024/02/16 11:15:35;;;;;;;7.75;2.70;;;;;;;23.00;32.01;95093.75;6216373;23;20004;-87
2024/02/16 11:23:12;;;;;;;5.00;2.53;;;;;;;22.98;31.94;95103.00;6215254;23;20029;-86
2024/02/16 11:25:49;;;;;;;3.58;2.45;;;;;;;22.77;31.65;95100.25;6161607;23;20012;-86
2024/02/16 11:30:40;;;;;;;3.37;2.60;;;;;;;22.62;32.31;95100.19;6211747;23;20027;-87
2024/02/16 11:33:05;;;;;;;2.90;2.60;;;;;;;22.47;32.25;95097.44;6161326;23;20238;-88
2024/02/16 11:35:31;;;;;;;4.70;2.78;;;;;;;21.93;32.80;95098.31;6161227;23;20103;-86
2024/02/16 11:37:57;;;;;;;4.40;2.65;;;;;;;22.07;32.17;95099.50;6161225;23;20009;-87
2024/02/16 11:40:22;;;;;;;5.03;2.80;;;;;;;21.79;33.37;95093.41;6185732;23;20074;-87
2024/02/16 11:45:13;;;;;;;4.22;3.00;;;;;;;21.66;33.44;95101.75;6191202;23;20115;-87
2024/02/16 11:47:38;;;;;;;5.57;2.75;;;;;;;21.21;34.37;95102.84;6186397;23;20000;-87
2024/02/16 11:50:10;;;;;;;4.97;2.78;;;;;;;20.94;34.80;95116.78;6136967;23;20046;-87
2024/02/16 11:52:36;;;;;;;5.22;2.70;;;;;;;20.55;36.53;95105.41;6186667;23;20009;-88
2024/02/16 11:55:10;;;;;;;4.25;2.70;;;;;;;20.87;36.02;95109.06;6186012;23;20139;-87
2024/02/16 12:00:07;;;;;;;4.13;3.03;;;;;;;20.98;36.63;95103.88;6210783;23;20028;-87
2024/02/16 12:02:37;;;;;;;5.57;3.08;;;;;;;20.98;36.54;95099.41;6186374;23;20060;-87
2024/02/16 12:05:03;;;;;;;4.07;3.05;;;;;;;20.89;35.91;95106.97;6211058;23;20015;-87
2024/02/16 12:07:29;;;;;;;5.20;3.30;;;;;;;21.07;35.17;95110.34;6212907;23;20040;-87
2024/02/16 12:12:27;;;;;;;3.88;2.60;;;;;;;20.84;33.24;95096.31;6213251;23;20028;-87
2024/02/16 12:14:54;;;;;;;5.65;2.67;;;;;;;20.47;34.67;95109.28;6188865;23;20043;-86
2024/02/16 12:17:19;;;;;;;4.45;2.88;;;;;;;20.51;34.98;95092.69;6196754;23;20024;-87
2024/02/16 12:19:46;;;;;;;3.97;2.60;;;;;;;20.54;34.61;95094.03;6187422;23;20019;-87
2024/02/16 12:22:17;;;;;;;4.47;2.70;;;;;;;20.82;34.59;95108.19;6213228;23;20004;-86
2024/02/16 12:24:44;;;;;;;3.50;2.65;;;;;;;21.00;34.21;95112.38;6188252;23;20009;-87
2024/02/16 12:27:09;;;;;;;3.90;2.45;;;;;;;21.14;32.54;95113.63;6187827;23;20004;-87
2024/02/16 12:29:34;;;;;;;5.22;2.70;;;;;;;20.99;34.70;95093.06;6162960;23;20012;-87
2024/02/16 12:32:00;;;;;;;4.45;2.50;;;;;;;20.87;33.45;95110.91;6188058;23;20058;-88
2024/02/16 12:44:36;;;;;;;4.07;2.75;;;;;;;21.51;35.19;95106.91;6211826;23;20016;-87
2024/02/16 12:47:02;;;;;;;4.10;2.80;;;;;;;21.42;34.68;95099.38;6162998;23;20019;-87
2024/02/16 12:49:27;;;;;;;5.68;2.90;;;;;;;21.23;34.48;95103.41;6187643;23;20040;-87
2024/02/16 12:51:56;;;;;;;3.10;2.30;;;;;;;21.42;35.34;95106.53;6187507;23;20091;-87
2024/02/16 12:59:25;;;;;;;5.10;2.17;;;;;;;21.82;33.21;95098.22;6204312;23;20009;-88
2024/02/16 13:01:51;;;;;;;5.53;2.00;;;;;;;21.90;32.98;95093.53;6184813;23;20021;-87
2024/02/16 13:04:21;;;;;;;3.55;1.70;;;;;;;21.78;32.97;95091.00;6187293;23;20075;-87
2024/02/16 13:09:11;;;;;;;3.78;1.83;;;;;;;21.42;33.33;95109.19;6204616;23;20258;-87
2024/02/16 13:11:40;;;;;;;2.40;1.95;;;;;;;21.90;33.56;95104.13;6162715;23;20013;-87
2024/02/16 13:14:08;;;;;;;2.70;1.95;;;;;;;21.62;33.03;95098.81;6187153;23;20087;-87
2024/02/16 13:16:34;;;;;;;3.30;1.98;;;;;;;21.70;33.57;95110.81;6187453;23;20004;-87
2024/02/16 13:24:00;;;;;;;4.03;2.10;;;;;;;21.54;33.61;95111.72;6216949;23;20295;-88
2024/02/16 13:26:26;;;;;;;3.38;2.10;;;;;;;21.73;33.99;95102.38;6242754;23;20004;-87
2024/02/16 13:28:52;;;;;;;4.22;2.10;;;;;;;22.15;33.71;95090.28;6192058;23;20004;-86
2024/02/16 13:36:28;;;;;;;4.63;2.50;;;;;;;21.88;33.04;95104.38;6176615;23;20022;-86
2024/02/16 13:38:55;;;;;;;3.35;2.40;;;;;;;21.87;33.19;95110.69;6132279;23;20052;-87
2024/02/16 13:41:21;;;;;;;3.45;2.10;;;;;;;21.73;33.23;95105.03;6132897;23;20005;-87
2024/02/16 13:43:47;;;;;;;3.42;2.40;;;;;;;21.77;33.16;95095.53;6132658;23;20012;-87
2024/02/16 13:46:12;;;;;;;3.15;2.38;;;;;;;21.65;33.26;95105.47;6157139;23;20040;-87
2024/02/16 13:48:39;;;;;;;4.18;2.40;;;;;;;21.62;33.28;95108.59;6162320;23;20013;-86
2024/02/16 13:53:30;;;;;;;3.22;2.22;;;;;;;21.37;33.72;95109.13;6186837;23;20020;-88
2024/02/16 13:56:04;;;;;;;3.10;2.30;;;;;;;21.40;33.86;95103.31;6186860;23;20063;-87
2024/02/16 13:58:30;;;;;;;4.45;2.50;;;;;;;21.46;34.08;95099.72;6163005;23;20063;-87
2024/02/16 14:00:58;;;;;;;5.22;2.30;;;;;;;21.62;34.48;95113.91;6187087;23;20074;-87
2024/02/16 14:03:23;;;;;;;5.55;2.53;;;;;;;21.43;35.54;95105.47;6187308;23;20082;-87
2024/02/16 14:05:49;;;;;;;9.43;2.47;;;;;;;21.43;34.84;95108.91;6161966;23;20013;-86
2024/02/16 14:08:18;;;;;;;5.53;2.25;;;;;;;21.53;35.15;95116.19;6161997;23;20039;-86
2024/02/16 14:10:43;;;;;;;7.07;2.70;;;;;;;21.26;36.25;95108.19;6186802;23;20095;-87
2024/02/16 14:13:12;;;;;;;6.88;2.67;;;;;;;21.28;35.93;95104.28;6187662;23;20012;-88
2024/02/16 14:15:37;;;;;;;3.72;2.45;;;;;;;21.33;34.95;95100.88;6186638;23;20011;-88
2024/02/16 14:18:07;;;;;;;6.53;2.60;;;;;;;21.04;35.56;95103.72;6186203;23;20011;-87
2024/02/16 14:20:32;;;;;;;6.15;2.47;;;;;;;21.17;35.83;95117.59;6186959;23;20017;-87
2024/02/16 14:23:02;;;;;;;4.47;2.67;;;;;;;21.16;34.88;95100.94;6186919;23;20012;-86
2024/02/16 14:25:30;;;;;;;5.82;2.58;;;;;;;21.18;34.41;95112.06;6163092;23;20016;-87
2024/02/16 14:27:56;;;;;;;4.80;2.80;;;;;;;20.97;35.43;95112.88;6162591;23;20020;-88
2024/02/16 14:30:21;;;;;;;5.03;2.63;;;;;;;21.23;35.07;95114.78;6186509;23;20055;-87
2024/02/16 14:32:47;;;;;;;4.40;2.50;;;;;;;20.88;35.47;95109.84;6162031;23;20008;-87
2024/02/16 14:35:12;;;;;;;6.85;2.65;;;;;;;20.98;35.94;95115.28;6212400;22;20025;-86
2024/02/16 14:37:40;;;;;;;4.18;2.70;;;;;;;20.95;35.42;95118.41;6161713;23;20043;-87
2024/02/16 14:40:09;;;;;;;5.68;2.17;;;;;;;21.18;34.75;95119.22;6186597;23;20004;-87
2024/02/16 14:42:35;;;;;;;3.88;2.40;;;;;;;20.88;35.55;95115.13;6211886;23;20004;-86
2024/02/16 14:50:07;;;;;;;5.70;2.80;;;;;;;20.94;35.51;95118.66;6217224;22;20024;-87
2024/02/16 14:52:33;;;;;;;5.57;2.70;;;;;;;20.87;35.80;95122.28;6162078;23;20022;-87
2024/02/16 14:55:02;;;;;;;5.28;2.70;;;;;;;20.78;36.21;95125.59;6186157;23;20009;-87
2024/02/16 14:57:28;;;;;;;17.05;3.47;;;;;;;20.78;36.04;95125.59;6161783;23;20019;-87
2024/02/16 15:00:05;;;;;;;;;;;;;;;;;;;;;
2024/02/16 15:04:56;;;;;;;6.38;2.72;;;;;;;20.87;35.96;95129.41;6241781;22;20101;-87
2024/02/16 15:07:22;;;;;;;6.88;2.90;;;;;;;20.60;36.57;95124.81;6217117;23;20008;-87
2024/02/16 15:14:59;;;;;;;5.07;2.78;;;;;;;20.62;37.50;95125.38;6182594;23;20029;-87
2024/02/16 15:17:24;;;;;;;5.93;2.70;;;;;;;20.81;37.80;95125.91;6156843;23;20020;-87
2024/02/16 15:19:52;;;;;;;8.02;3.55;;;;;;;20.80;37.21;95134.88;6157538;23;20009;-87
2024/02/16 15:22:18;;;;;;;5.90;2.33;;;;;;;20.56;37.85;95130.78;6157665;23;20044;-87
2024/02/16 15:27:10;;;;;;;5.37;2.70;;;;;;;20.43;38.22;95129.28;6201661;23;20031;-86
2024/02/16 15:29:38;;;;;;;6.47;2.10;;;;;;;20.57;38.54;95132.41;6161690;23;20009;-87
2024/02/16 15:32:04;;;;;;;5.22;2.22;;;;;;;20.30;38.98;95136.50;6186513;23;20000;-87
2024/02/16 15:37:05;;;;;;;5.10;2.70;;;;;;;20.45;39.25;95128.00;6204133;23;20023;-87
2024/02/16 15:39:30;;;;;;;3.67;2.40;;;;;;;20.34;38.78;95128.09;6216515;23;20013;-87
2024/02/16 15:41:55;;;;;;;7.20;2.72;;;;;;;20.37;39.35;95132.88;6192374;23;20008;-86
2024/02/16 15:44:21;;;;;;;6.57;2.65;;;;;;;20.10;39.59;95129.06;6218002;23;20016;-87
2024/02/16 15:46:49;;;;;;;6.30;2.50;;;;;;;20.03;40.00;95151.34;6243986;23;19996;-87
2024/02/16 15:49:15;;;;;;;6.30;2.30;;;;;;;20.06;39.73;95154.31;6224730;23;20008;-88
2024/02/16 15:51:40;;;;;;;4.85;2.20;;;;;;;20.05;39.35;95139.53;6218960;23;20010;-87
2024/02/16 15:54:09;;;;;;;4.93;2.35;;;;;;;19.99;40.00;95158.16;6178098;23;19997;-86
2024/02/16 15:56:35;;;;;;;6.07;2.38;;;;;;;19.85;40.26;95158.44;6170110;23;20062;-86
2024/02/16 15:59:01;;;;;;;4.97;2.47;;;;;;;19.57;40.64;95150.50;6218521;23;20008;-87
2024/02/16 16:01:27;;;;;;;6.55;2.60;;;;;;;19.76;40.45;95159.06;6170135;23;20073;-86
2024/02/16 16:03:52;;;;;;;5.75;2.53;;;;;;;19.42;41.23;95156.28;6194318;23;20020;-86
2024/02/16 16:06:21;;;;;;;7.07;2.75;;;;;;;19.40;41.22;95156.53;6168462;23;20016;-86
2024/02/16 16:08:47;;;;;;;5.10;2.28;;;;;;;19.35;41.38;95172.25;6193927;23;20012;-87
2024/02/16 16:11:15;;;;;;;4.15;2.47;;;;;;;19.23;41.58;95155.66;6193281;23;20099;-87
2024/02/16 16:13:41;;;;;;;8.00;2.88;;;;;;;19.25;41.72;95167.59;6193132;23;20004;-86
2024/02/16 16:16:08;;;;;;;5.22;2.50;;;;;;;18.89;42.36;95176.59;6185220;23;20012;-87
2024/02/16 16:18:34;;;;;;;4.47;2.50;;;;;;;18.74;42.38;95166.47;6187547;23;20016;-87
2024/02/16 16:21:05;;;;;;;6.65;2.72;;;;;;;18.72;42.71;95174.59;6163576;23;20032;-86
2024/02/16 16:23:35;;;;;;;8.52;2.60;;;;;;;18.63;43.05;95181.25;6162927;23;20000;-86
2024/02/16 16:26:03;;;;;;;4.57;2.55;;;;;;;18.52;43.52;95180.22;6163957;23;20098;-86
2024/02/16 16:33:39;;;;;;;5.35;2.50;;;;;;;18.01;44.32;95181.63;6185132;23;20017;-87
2024/02/16 16:36:12;;;;;;;6.18;2.47;;;;;;;17.93;44.71;95188.00;6212891;23;20016;-86